sensor_id;sensor_type;location;lat;lon;timestamp;temperature;humidity
1179;DHT22;578;48.408;10.004;2023-12-22T00:00:24;6.20;99.90
1179;DHT22;578;48.408;10.004;2023-12-22T00:02:26;5.90;99.90
1179;DHT22;578;48.408;10.004;2023-12-22T00:04:29;5.70;99.90
1179;DHT22;578;48.408;10.004;2023-12-22T00:06:30;5.60;99.90
1179;DHT22;578;48.408;10.004;2023-12-22T00:08:31;5.60;99.90
1179;DHT22;578;48.408;10.004;2023-12-22T00:10:34;5.60;99.90
1179;DHT22;578;48.408;10.004;2023-12-22T00:12:36;5.50;99.90
1179;DHT22;578;48.408;10.004;2023-12-22T00:14:38;5.60;99.90
1179;DHT22;578;48.408;10.004;2023-12-22T00:16:41;5.60;99.90
1179;DHT22;578;48.408;10.004;2023-12-22T00:18:42;5.60;99.90
1179;DHT22;578;48.408;10.004;2023-12-22T00:20:44;5.60;99.90
1179;DHT22;578;48.408;10.004;2023-12-22T00:22:46;5.70;99.90
1179;DHT22;578;48.408;10.004;2023-12-22T00:24:48;5.70;99.90
1179;DHT22;578;48.408;10.004;2023-12-22T00:26:51;5.70;99.90
1179;DHT22;578;48.408;10.004;2023-12-22T00:28:51;5.70;99.90
1179;DHT22;578;48.408;10.004;2023-12-22T00:30:53;5.70;99.90
1179;DHT22;578;48.408;10.004;2023-12-22T00:32:55;5.70;99.90
1179;DHT22;578;48.408;10.004;2023-12-22T00:34:57;5.70;99.90
1179;DHT22;578;48.408;10.004;2023-12-22T00:36:58;5.60;99.90
1179;DHT22;578;48.408;10.004;2023-12-22T00:39:01;5.60;99.90
1179;DHT22;578;48.408;10.004;2023-12-22T00:41:03;5.60;99.90
1179;DHT22;578;48.408;10.004;2023-12-22T00:43:06;5.60;99.90
1179;DHT22;578;48.408;10.004;2023-12-22T00:45:09;5.60;99.90
1179;DHT22;578;48.408;10.004;2023-12-22T00:47:11;5.60;99.90
1179;DHT22;578;48.408;10.004;2023-12-22T00:49:12;5.50;99.90
1179;DHT22;578;48.408;10.004;2023-12-22T00:51:14;5.50;99.90
1179;DHT22;578;48.408;10.004;2023-12-22T00:53:16;5.50;99.90
1179;DHT22;578;48.408;10.004;2023-12-22T00:55:18;5.50;99.90
1179;DHT22;578;48.408;10.004;2023-12-22T00:57:19;5.50;99.90
1179;DHT22;578;48.408;10.004;2023-12-22T00:59:22;5.50;99.90
1179;DHT22;578;48.408;10.004;2023-12-22T01:01:24;5.40;99.90
1179;DHT22;578;48.408;10.004;2023-12-22T01:03:26;5.40;99.90
1179;DHT22;578;48.408;10.004;2023-12-22T01:05:27;5.40;99.90
1179;DHT22;578;48.408;10.004;2023-12-22T01:07:28;5.40;99.90
1179;DHT22;578;48.408;10.004;2023-12-22T01:09:30;5.50;99.90
1179;DHT22;578;48.408;10.004;2023-12-22T01:11:32;5.70;99.90
1179;DHT22;578;48.408;10.004;2023-12-22T01:13:34;5.70;99.90
1179;DHT22;578;48.408;10.004;2023-12-22T01:15:37;5.70;99.90
1179;DHT22;578;48.408;10.004;2023-12-22T01:17:38;5.80;99.90
1179;DHT22;578;48.408;10.004;2023-12-22T01:19:40;5.90;99.90
1179;DHT22;578;48.408;10.004;2023-12-22T01:21:41;6.10;99.90
1179;DHT22;578;48.408;10.004;2023-12-22T01:23:43;6.20;99.90
1179;DHT22;578;48.408;10.004;2023-12-22T01:25:45;6.30;99.90
1179;DHT22;578;48.408;10.004;2023-12-22T01:27:46;6.30;99.90
1179;DHT22;578;48.408;10.004;2023-12-22T01:29:49;6.40;99.90
1179;DHT22;578;48.408;10.004;2023-12-22T01:31:52;6.40;99.90
1179;DHT22;578;48.408;10.004;2023-12-22T01:33:54;6.50;99.90
1179;DHT22;578;48.408;10.004;2023-12-22T01:35:56;6.50;99.90
1179;DHT22;578;48.408;10.004;2023-12-22T01:37:58;6.60;99.90
1179;DHT22;578;48.408;10.004;2023-12-22T01:39:59;6.50;99.90
1179;DHT22;578;48.408;10.004;2023-12-22T01:42:01;6.50;99.90
1179;DHT22;578;48.408;10.004;2023-12-22T01:44:03;6.20;99.90
1179;DHT22;578;48.408;10.004;2023-12-22T01:46:06;6.10;99.90
1179;DHT22;578;48.408;10.004;2023-12-22T01:48:09;6.00;99.90
1179;DHT22;578;48.408;10.004;2023-12-22T01:50:12;5.90;99.90
1179;DHT22;578;48.408;10.004;2023-12-22T01:52:15;5.90;99.90
1179;DHT22;578;48.408;10.004;2023-12-22T01:54:17;5.80;99.90
1179;DHT22;578;48.408;10.004;2023-12-22T01:56:19;5.90;99.90
1179;DHT22;578;48.408;10.004;2023-12-22T01:58:20;6.00;99.90
1179;DHT22;578;48.408;10.004;2023-12-22T02:00:23;6.00;99.90
1179;DHT22;578;48.408;10.004;2023-12-22T02:02:25;6.00;99.90
1179;DHT22;578;48.408;10.004;2023-12-22T02:04:28;6.00;99.90
1179;DHT22;578;48.408;10.004;2023-12-22T02:06:32;6.00;99.90
1179;DHT22;578;48.408;10.004;2023-12-22T02:08:36;6.10;99.90
1179;DHT22;578;48.408;10.004;2023-12-22T02:10:38;6.00;99.90
1179;DHT22;578;48.408;10.004;2023-12-22T02:12:39;6.00;99.90
1179;DHT22;578;48.408;10.004;2023-12-22T02:14:41;6.10;99.90
1179;DHT22;578;48.408;10.004;2023-12-22T02:16:46;6.20;99.90
1179;DHT22;578;48.408;10.004;2023-12-22T02:18:52;6.20;99.90
1179;DHT22;578;48.408;10.004;2023-12-22T02:20:58;6.30;99.90
1179;DHT22;578;48.408;10.004;2023-12-22T02:23:01;6.30;99.90
1179;DHT22;578;48.408;10.004;2023-12-22T02:25:03;6.20;99.90
1179;DHT22;578;48.408;10.004;2023-12-22T02:27:06;6.20;99.90
1179;DHT22;578;48.408;10.004;2023-12-22T02:29:12;6.20;99.90
1179;DHT22;578;48.408;10.004;2023-12-22T02:31:17;6.20;99.90
1179;DHT22;578;48.408;10.004;2023-12-22T02:33:24;6.30;99.90
1179;DHT22;578;48.408;10.004;2023-12-22T02:35:29;6.30;99.90
1179;DHT22;578;48.408;10.004;2023-12-22T02:37:32;6.30;99.90
1179;DHT22;578;48.408;10.004;2023-12-22T02:39:36;6.30;99.90
1179;DHT22;578;48.408;10.004;2023-12-22T02:41:39;6.30;99.90
1179;DHT22;578;48.408;10.004;2023-12-22T02:43:41;6.30;99.90
1179;DHT22;578;48.408;10.004;2023-12-22T02:45:43;6.30;99.90
1179;DHT22;578;48.408;10.004;2023-12-22T02:47:45;6.30;99.90
1179;DHT22;578;48.408;10.004;2023-12-22T02:49:46;6.20;99.90
1179;DHT22;578;48.408;10.004;2023-12-22T02:51:47;6.20;99.90
1179;DHT22;578;48.408;10.004;2023-12-22T02:53:49;6.30;99.90
1179;DHT22;578;48.408;10.004;2023-12-22T02:55:52;6.30;99.90
1179;DHT22;578;48.408;10.004;2023-12-22T02:57:54;6.20;99.90
1179;DHT22;578;48.408;10.004;2023-12-22T02:59:56;6.20;99.90
1179;DHT22;578;48.408;10.004;2023-12-22T03:01:57;6.20;99.90
1179;DHT22;578;48.408;10.004;2023-12-22T03:03:58;6.20;99.90
1179;DHT22;578;48.408;10.004;2023-12-22T03:06:00;6.10;99.90
1179;DHT22;578;48.408;10.004;2023-12-22T03:08:02;6.20;99.90
1179;DHT22;578;48.408;10.004;2023-12-22T03:10:05;6.10;99.90
1179;DHT22;578;48.408;10.004;2023-12-22T03:12:08;6.10;99.90
1179;DHT22;578;48.408;10.004;2023-12-22T03:14:10;6.10;99.90
1179;DHT22;578;48.408;10.004;2023-12-22T03:16:12;6.10;99.90
1179;DHT22;578;48.408;10.004;2023-12-22T03:18:14;6.20;99.90
1179;DHT22;578;48.408;10.004;2023-12-22T03:20:16;6.20;99.90
1179;DHT22;578;48.408;10.004;2023-12-22T03:22:17;6.20;99.90
1179;DHT22;578;48.408;10.004;2023-12-22T03:24:18;6.10;99.90
1179;DHT22;578;48.408;10.004;2023-12-22T03:26:22;6.10;99.90
1179;DHT22;578;48.408;10.004;2023-12-22T03:28:25;6.20;99.90
1179;DHT22;578;48.408;10.004;2023-12-22T03:30:27;6.30;99.90
1179;DHT22;578;48.408;10.004;2023-12-22T03:32:29;6.30;99.90
1179;DHT22;578;48.408;10.004;2023-12-22T03:34:31;6.30;99.90
1179;DHT22;578;48.408;10.004;2023-12-22T03:36:32;6.30;99.90
1179;DHT22;578;48.408;10.004;2023-12-22T03:38:33;6.30;99.90
1179;DHT22;578;48.408;10.004;2023-12-22T03:40:35;6.30;99.90
1179;DHT22;578;48.408;10.004;2023-12-22T03:42:36;6.30;99.90
1179;DHT22;578;48.408;10.004;2023-12-22T03:44:39;6.30;99.90
1179;DHT22;578;48.408;10.004;2023-12-22T03:46:41;6.30;99.90
1179;DHT22;578;48.408;10.004;2023-12-22T03:48:42;6.40;99.90
1179;DHT22;578;48.408;10.004;2023-12-22T03:50:43;6.50;99.90
1179;DHT22;578;48.408;10.004;2023-12-22T03:52:45;6.40;99.90
1179;DHT22;578;48.408;10.004;2023-12-22T03:54:46;6.40;99.90
1179;DHT22;578;48.408;10.004;2023-12-22T03:56:47;6.50;99.90
1179;DHT22;578;48.408;10.004;2023-12-22T03:58:49;6.50;99.90
1179;DHT22;578;48.408;10.004;2023-12-22T04:00:52;6.60;99.90
1179;DHT22;578;48.408;10.004;2023-12-22T04:02:54;6.60;99.90
1179;DHT22;578;48.408;10.004;2023-12-22T04:04:56;6.50;99.90
1179;DHT22;578;48.408;10.004;2023-12-22T04:06:56;6.50;99.90
1179;DHT22;578;48.408;10.004;2023-12-22T04:08:58;6.50;99.90
1179;DHT22;578;48.408;10.004;2023-12-22T04:11:00;6.50;99.90
1179;DHT22;578;48.408;10.004;2023-12-22T04:13:02;6.50;99.90
1179;DHT22;578;48.408;10.004;2023-12-22T04:15:05;6.50;99.90
1179;DHT22;578;48.408;10.004;2023-12-22T04:17:08;6.60;99.90
1179;DHT22;578;48.408;10.004;2023-12-22T04:19:10;6.60;99.90
1179;DHT22;578;48.408;10.004;2023-12-22T04:21:11;6.60;99.90
1179;DHT22;578;48.408;10.004;2023-12-22T04:23:12;6.70;99.90
1179;DHT22;578;48.408;10.004;2023-12-22T04:25:15;6.60;99.90
1179;DHT22;578;48.408;10.004;2023-12-22T04:27:17;6.70;99.90
1179;DHT22;578;48.408;10.004;2023-12-22T04:29:18;6.70;99.90
1179;DHT22;578;48.408;10.004;2023-12-22T04:31:19;6.70;99.90
1179;DHT22;578;48.408;10.004;2023-12-22T04:33:22;6.70;99.90
1179;DHT22;578;48.408;10.004;2023-12-22T04:35:24;6.70;99.90
1179;DHT22;578;48.408;10.004;2023-12-22T04:37:26;6.50;99.90
1179;DHT22;578;48.408;10.004;2023-12-22T04:39:27;6.30;99.90
1179;DHT22;578;48.408;10.004;2023-12-22T04:41:28;6.20;99.90
1179;DHT22;578;48.408;10.004;2023-12-22T04:43:30;6.10;99.90
1179;DHT22;578;48.408;10.004;2023-12-22T04:45:32;6.00;99.90
1179;DHT22;578;48.408;10.004;2023-12-22T04:47:33;6.00;99.90
1179;DHT22;578;48.408;10.004;2023-12-22T04:49:36;5.90;99.90
1179;DHT22;578;48.408;10.004;2023-12-22T04:51:38;5.80;99.90
1179;DHT22;578;48.408;10.004;2023-12-22T04:53:40;5.70;99.90
1179;DHT22;578;48.408;10.004;2023-12-22T04:55:42;5.70;99.90
1179;DHT22;578;48.408;10.004;2023-12-22T04:57:43;5.70;99.90
1179;DHT22;578;48.408;10.004;2023-12-22T04:59:45;5.70;99.90
1179;DHT22;578;48.408;10.004;2023-12-22T05:01:46;5.60;99.90
1179;DHT22;578;48.408;10.004;2023-12-22T05:03:48;5.60;99.90
1179;DHT22;578;48.408;10.004;2023-12-22T05:05:50;5.60;99.90
1179;DHT22;578;48.408;10.004;2023-12-22T05:07:52;5.60;99.90
1179;DHT22;578;48.408;10.004;2023-12-22T05:09:53;5.60;99.90
1179;DHT22;578;48.408;10.004;2023-12-22T05:11:56;5.60;99.90
1179;DHT22;578;48.408;10.004;2023-12-22T05:13:57;5.60;99.90
1179;DHT22;578;48.408;10.004;2023-12-22T05:15:59;5.60;99.90
1179;DHT22;578;48.408;10.004;2023-12-22T05:18:00;5.60;99.90
1179;DHT22;578;48.408;10.004;2023-12-22T05:20:02;5.60;99.90
1179;DHT22;578;48.408;10.004;2023-12-22T05:22:05;5.60;99.90
1179;DHT22;578;48.408;10.004;2023-12-22T05:24:07;5.70;99.90
1179;DHT22;578;48.408;10.004;2023-12-22T05:26:08;5.60;99.90
1179;DHT22;578;48.408;10.004;2023-12-22T05:28:10;5.70;99.90
1179;DHT22;578;48.408;10.004;2023-12-22T05:30:12;5.70;99.90
1179;DHT22;578;48.408;10.004;2023-12-22T05:32:14;5.70;99.90
1179;DHT22;578;48.408;10.004;2023-12-22T05:34:16;5.80;99.90
1179;DHT22;578;48.408;10.004;2023-12-22T05:36:18;5.80;99.90
1179;DHT22;578;48.408;10.004;2023-12-22T05:38:21;5.90;99.90
1179;DHT22;578;48.408;10.004;2023-12-22T05:40:23;5.80;99.90
1179;DHT22;578;48.408;10.004;2023-12-22T05:42:24;5.90;99.90
1179;DHT22;578;48.408;10.004;2023-12-22T05:44:25;5.90;99.90
1179;DHT22;578;48.408;10.004;2023-12-22T05:46:29;5.90;99.90
1179;DHT22;578;48.408;10.004;2023-12-22T05:48:31;5.90;99.90
1179;DHT22;578;48.408;10.004;2023-12-22T05:50:35;5.90;99.90
1179;DHT22;578;48.408;10.004;2023-12-22T05:52:37;6.00;99.90
1179;DHT22;578;48.408;10.004;2023-12-22T05:54:40;6.00;99.90
1179;DHT22;578;48.408;10.004;2023-12-22T05:56:41;6.00;99.90
1179;DHT22;578;48.408;10.004;2023-12-22T05:58:43;6.10;99.90
1179;DHT22;578;48.408;10.004;2023-12-22T06:00:45;6.10;99.90
1179;DHT22;578;48.408;10.004;2023-12-22T06:02:47;6.20;99.90
1179;DHT22;578;48.408;10.004;2023-12-22T06:04:48;6.20;99.90
1179;DHT22;578;48.408;10.004;2023-12-22T06:06:50;6.20;99.90
1179;DHT22;578;48.408;10.004;2023-12-22T06:08:52;6.10;99.90
1179;DHT22;578;48.408;10.004;2023-12-22T06:10:55;6.20;99.90
1179;DHT22;578;48.408;10.004;2023-12-22T06:12:56;6.30;99.90
1179;DHT22;578;48.408;10.004;2023-12-22T06:14:58;6.20;99.90
1179;DHT22;578;48.408;10.004;2023-12-22T06:17:00;6.20;99.90
1179;DHT22;578;48.408;10.004;2023-12-22T06:19:01;6.20;99.90
1179;DHT22;578;48.408;10.004;2023-12-22T06:21:03;6.20;99.90
1179;DHT22;578;48.408;10.004;2023-12-22T06:23:05;6.10;99.90
1179;DHT22;578;48.408;10.004;2023-12-22T06:25:07;5.90;99.90
1179;DHT22;578;48.408;10.004;2023-12-22T06:27:11;5.80;99.90
1179;DHT22;578;48.408;10.004;2023-12-22T06:29:13;5.70;99.90
1179;DHT22;578;48.408;10.004;2023-12-22T06:31:18;5.60;99.90
1179;DHT22;578;48.408;10.004;2023-12-22T06:33:21;5.50;99.90
1179;DHT22;578;48.408;10.004;2023-12-22T06:35:21;5.40;99.90
1179;DHT22;578;48.408;10.004;2023-12-22T06:37:25;5.40;99.90
1179;DHT22;578;48.408;10.004;2023-12-22T06:39:26;5.50;99.90
1179;DHT22;578;48.408;10.004;2023-12-22T06:41:29;5.50;99.90
1179;DHT22;578;48.408;10.004;2023-12-22T06:43:32;5.50;99.90
1179;DHT22;578;48.408;10.004;2023-12-22T06:45:34;5.50;99.90
1179;DHT22;578;48.408;10.004;2023-12-22T06:47:36;5.60;99.90
1179;DHT22;578;48.408;10.004;2023-12-22T06:49:38;5.70;99.90
1179;DHT22;578;48.408;10.004;2023-12-22T06:51:39;5.70;99.90
1179;DHT22;578;48.408;10.004;2023-12-22T06:53:40;5.70;99.90
1179;DHT22;578;48.408;10.004;2023-12-22T06:55:42;5.70;99.90
1179;DHT22;578;48.408;10.004;2023-12-22T06:57:45;5.60;99.90
1179;DHT22;578;48.408;10.004;2023-12-22T06:59:48;5.70;99.90
1179;DHT22;578;48.408;10.004;2023-12-22T07:01:50;5.60;99.90
1179;DHT22;578;48.408;10.004;2023-12-22T07:03:52;5.60;99.90
1179;DHT22;578;48.408;10.004;2023-12-22T07:05:54;5.70;99.90
1179;DHT22;578;48.408;10.004;2023-12-22T07:07:55;5.70;99.90
1179;DHT22;578;48.408;10.004;2023-12-22T07:09:57;5.70;99.90
1179;DHT22;578;48.408;10.004;2023-12-22T07:11:59;5.70;99.90
1179;DHT22;578;48.408;10.004;2023-12-22T07:14:01;5.70;99.90
1179;DHT22;578;48.408;10.004;2023-12-22T07:16:05;5.70;99.90
1179;DHT22;578;48.408;10.004;2023-12-22T07:18:08;5.80;99.90
1179;DHT22;578;48.408;10.004;2023-12-22T07:20:09;5.90;99.90
1179;DHT22;578;48.408;10.004;2023-12-22T07:22:11;5.80;99.90
1179;DHT22;578;48.408;10.004;2023-12-22T07:24:14;5.90;99.90
1179;DHT22;578;48.408;10.004;2023-12-22T07:26:16;5.90;99.90
1179;DHT22;578;48.408;10.004;2023-12-22T07:28:21;5.90;99.90
1179;DHT22;578;48.408;10.004;2023-12-22T07:30:23;6.00;99.90
1179;DHT22;578;48.408;10.004;2023-12-22T07:32:25;5.90;99.90
1179;DHT22;578;48.408;10.004;2023-12-22T07:34:27;5.90;99.90
1179;DHT22;578;48.408;10.004;2023-12-22T07:36:28;5.80;99.90
1179;DHT22;578;48.408;10.004;2023-12-22T07:38:30;5.80;99.90
1179;DHT22;578;48.408;10.004;2023-12-22T07:40:32;5.80;99.90
1179;DHT22;578;48.408;10.004;2023-12-22T07:42:34;5.70;99.90
1179;DHT22;578;48.408;10.004;2023-12-22T07:44:35;5.70;99.90
1179;DHT22;578;48.408;10.004;2023-12-22T07:46:36;5.60;99.90
1179;DHT22;578;48.408;10.004;2023-12-22T07:48:39;5.60;99.90
1179;DHT22;578;48.408;10.004;2023-12-22T07:50:40;5.60;99.90
1179;DHT22;578;48.408;10.004;2023-12-22T07:52:42;5.50;99.90
1179;DHT22;578;48.408;10.004;2023-12-22T07:54:44;5.50;99.90
1179;DHT22;578;48.408;10.004;2023-12-22T07:56:45;5.60;99.90
1179;DHT22;578;48.408;10.004;2023-12-22T07:58:47;5.60;99.90
1179;DHT22;578;48.408;10.004;2023-12-22T08:00:48;5.70;99.90
1179;DHT22;578;48.408;10.004;2023-12-22T08:02:50;5.70;99.90
1179;DHT22;578;48.408;10.004;2023-12-22T08:04:54;5.80;99.90
1179;DHT22;578;48.408;10.004;2023-12-22T08:06:56;5.80;99.90
1179;DHT22;578;48.408;10.004;2023-12-22T08:08:57;5.80;99.90
1179;DHT22;578;48.408;10.004;2023-12-22T08:10:58;5.90;99.90
1179;DHT22;578;48.408;10.004;2023-12-22T08:13:01;6.00;99.90
1179;DHT22;578;48.408;10.004;2023-12-22T08:15:03;6.00;99.90
1179;DHT22;578;48.408;10.004;2023-12-22T08:17:06;6.00;99.90
1179;DHT22;578;48.408;10.004;2023-12-22T08:19:06;6.00;99.90
1179;DHT22;578;48.408;10.004;2023-12-22T08:21:09;6.00;99.90
1179;DHT22;578;48.408;10.004;2023-12-22T08:23:10;6.00;99.90
1179;DHT22;578;48.408;10.004;2023-12-22T08:25:13;5.90;99.90
1179;DHT22;578;48.408;10.004;2023-12-22T08:27:15;5.90;99.90
1179;DHT22;578;48.408;10.004;2023-12-22T08:29:17;5.90;99.90
1179;DHT22;578;48.408;10.004;2023-12-22T08:31:19;5.80;99.90
1179;DHT22;578;48.408;10.004;2023-12-22T08:33:20;5.70;99.90
1179;DHT22;578;48.408;10.004;2023-12-22T08:35:22;5.70;99.90
1179;DHT22;578;48.408;10.004;2023-12-22T08:37:25;5.70;99.90
1179;DHT22;578;48.408;10.004;2023-12-22T08:39:27;5.70;99.90
1179;DHT22;578;48.408;10.004;2023-12-22T08:41:30;5.70;99.90
1179;DHT22;578;48.408;10.004;2023-12-22T08:43:36;5.60;99.90
1179;DHT22;578;48.408;10.004;2023-12-22T08:45:39;5.50;99.90
1179;DHT22;578;48.408;10.004;2023-12-22T08:47:40;5.50;99.90
1179;DHT22;578;48.408;10.004;2023-12-22T08:49:42;5.40;99.90
1179;DHT22;578;48.408;10.004;2023-12-22T08:51:44;5.40;99.90
1179;DHT22;578;48.408;10.004;2023-12-22T08:53:47;5.40;99.90
1179;DHT22;578;48.408;10.004;2023-12-22T08:55:50;5.50;99.90
1179;DHT22;578;48.408;10.004;2023-12-22T08:57:52;5.50;99.90
1179;DHT22;578;48.408;10.004;2023-12-22T08:59:54;5.50;99.90
1179;DHT22;578;48.408;10.004;2023-12-22T09:01:56;5.50;99.90
1179;DHT22;578;48.408;10.004;2023-12-22T09:03:57;5.50;99.90
1179;DHT22;578;48.408;10.004;2023-12-22T09:05:59;5.50;99.90
1179;DHT22;578;48.408;10.004;2023-12-22T09:08:01;5.60;99.90
1179;DHT22;578;48.408;10.004;2023-12-22T09:10:05;5.60;99.90
1179;DHT22;578;48.408;10.004;2023-12-22T09:12:07;5.70;99.90
1179;DHT22;578;48.408;10.004;2023-12-22T09:14:09;5.80;99.90
1179;DHT22;578;48.408;10.004;2023-12-22T09:16:11;5.90;99.90
1179;DHT22;578;48.408;10.004;2023-12-22T09:18:15;6.00;99.90
1179;DHT22;578;48.408;10.004;2023-12-22T09:20:17;6.10;99.90
1179;DHT22;578;48.408;10.004;2023-12-22T09:22:19;6.20;99.90
1179;DHT22;578;48.408;10.004;2023-12-22T09:24:22;6.20;99.90
1179;DHT22;578;48.408;10.004;2023-12-22T09:26:25;6.20;99.90
1179;DHT22;578;48.408;10.004;2023-12-22T09:28:26;6.20;99.90
1179;DHT22;578;48.408;10.004;2023-12-22T09:30:28;6.30;99.90
1179;DHT22;578;48.408;10.004;2023-12-22T09:32:30;6.30;99.90
1179;DHT22;578;48.408;10.004;2023-12-22T09:34:32;6.40;99.90
1179;DHT22;578;48.408;10.004;2023-12-22T09:36:32;6.40;99.90
1179;DHT22;578;48.408;10.004;2023-12-22T09:38:34;6.40;99.90
1179;DHT22;578;48.408;10.004;2023-12-22T09:40:36;6.40;99.90
1179;DHT22;578;48.408;10.004;2023-12-22T09:42:41;6.50;99.90
1179;DHT22;578;48.408;10.004;2023-12-22T09:44:45;6.50;99.90
1179;DHT22;578;48.408;10.004;2023-12-22T09:46:50;6.60;99.90
1179;DHT22;578;48.408;10.004;2023-12-22T09:48:53;6.60;99.90
1179;DHT22;578;48.408;10.004;2023-12-22T09:50:56;6.60;99.90
1179;DHT22;578;48.408;10.004;2023-12-22T09:52:59;6.70;99.90
1179;DHT22;578;48.408;10.004;2023-12-22T09:55:02;6.70;99.90
1179;DHT22;578;48.408;10.004;2023-12-22T09:57:05;6.70;99.90
1179;DHT22;578;48.408;10.004;2023-12-22T09:59:09;6.70;99.90
1179;DHT22;578;48.408;10.004;2023-12-22T10:01:12;6.70;99.90
1179;DHT22;578;48.408;10.004;2023-12-22T10:03:16;6.70;99.90
1179;DHT22;578;48.408;10.004;2023-12-22T10:05:17;6.70;99.90
1179;DHT22;578;48.408;10.004;2023-12-22T10:07:20;6.70;99.90
1179;DHT22;578;48.408;10.004;2023-12-22T10:09:22;6.70;99.90
1179;DHT22;578;48.408;10.004;2023-12-22T10:11:25;6.70;99.90
1179;DHT22;578;48.408;10.004;2023-12-22T10:13:27;6.70;99.90
1179;DHT22;578;48.408;10.004;2023-12-22T10:15:31;6.70;99.90
1179;DHT22;578;48.408;10.004;2023-12-22T10:17:32;6.70;99.90
1179;DHT22;578;48.408;10.004;2023-12-22T10:19:34;6.70;99.90
1179;DHT22;578;48.408;10.004;2023-12-22T10:21:36;6.80;99.90
1179;DHT22;578;48.408;10.004;2023-12-22T10:23:37;6.80;99.90
1179;DHT22;578;48.408;10.004;2023-12-22T10:25:40;6.80;99.90
1179;DHT22;578;48.408;10.004;2023-12-22T10:27:42;6.80;99.90
1179;DHT22;578;48.408;10.004;2023-12-22T10:29:44;6.80;99.90
1179;DHT22;578;48.408;10.004;2023-12-22T10:31:47;6.80;99.90
1179;DHT22;578;48.408;10.004;2023-12-22T10:33:49;6.90;99.90
1179;DHT22;578;48.408;10.004;2023-12-22T10:35:50;6.80;99.90
1179;DHT22;578;48.408;10.004;2023-12-22T10:37:55;6.80;99.90
1179;DHT22;578;48.408;10.004;2023-12-22T10:39:57;6.90;99.90
1179;DHT22;578;48.408;10.004;2023-12-22T10:41:59;6.80;99.90
1179;DHT22;578;48.408;10.004;2023-12-22T10:44:00;6.90;99.90
1179;DHT22;578;48.408;10.004;2023-12-22T10:46:03;6.90;99.90
1179;DHT22;578;48.408;10.004;2023-12-22T10:48:07;6.90;99.90
1179;DHT22;578;48.408;10.004;2023-12-22T10:50:11;7.00;99.90
1179;DHT22;578;48.408;10.004;2023-12-22T10:52:16;7.00;99.90
1179;DHT22;578;48.408;10.004;2023-12-22T10:54:19;7.00;99.90
1179;DHT22;578;48.408;10.004;2023-12-22T10:56:21;7.00;99.90
1179;DHT22;578;48.408;10.004;2023-12-22T10:58:22;7.10;99.90
1179;DHT22;578;48.408;10.004;2023-12-22T11:00:24;7.10;99.90
1179;DHT22;578;48.408;10.004;2023-12-22T11:02:27;7.10;99.90
1179;DHT22;578;48.408;10.004;2023-12-22T11:04:30;7.10;99.90
1179;DHT22;578;48.408;10.004;2023-12-22T11:06:37;7.10;99.90
1179;DHT22;578;48.408;10.004;2023-12-22T11:08:40;7.10;99.90
1179;DHT22;578;48.408;10.004;2023-12-22T11:10:44;7.10;99.90
1179;DHT22;578;48.408;10.004;2023-12-22T11:12:50;7.10;99.90
1179;DHT22;578;48.408;10.004;2023-12-22T11:14:53;7.10;99.90
1179;DHT22;578;48.408;10.004;2023-12-22T11:16:56;7.20;99.90
1179;DHT22;578;48.408;10.004;2023-12-22T11:18:59;7.10;99.90
1179;DHT22;578;48.408;10.004;2023-12-22T11:21:06;7.10;99.90
1179;DHT22;578;48.408;10.004;2023-12-22T11:23:08;7.20;99.90
1179;DHT22;578;48.408;10.004;2023-12-22T11:25:11;7.30;99.90
1179;DHT22;578;48.408;10.004;2023-12-22T11:27:13;7.20;99.90
1179;DHT22;578;48.408;10.004;2023-12-22T11:29:17;7.20;99.90
1179;DHT22;578;48.408;10.004;2023-12-22T11:31:21;7.20;99.90
1179;DHT22;578;48.408;10.004;2023-12-22T11:33:25;7.20;99.90
1179;DHT22;578;48.408;10.004;2023-12-22T11:35:28;7.20;99.90
1179;DHT22;578;48.408;10.004;2023-12-22T11:37:34;7.20;99.90
1179;DHT22;578;48.408;10.004;2023-12-22T11:39:37;7.20;99.90
1179;DHT22;578;48.408;10.004;2023-12-22T11:41:40;7.20;99.90
1179;DHT22;578;48.408;10.004;2023-12-22T11:43:44;7.10;99.90
1179;DHT22;578;48.408;10.004;2023-12-22T11:45:48;7.10;99.90
1179;DHT22;578;48.408;10.004;2023-12-22T11:47:50;7.10;99.90
1179;DHT22;578;48.408;10.004;2023-12-22T11:49:53;7.00;99.90
1179;DHT22;578;48.408;10.004;2023-12-22T11:51:54;7.00;99.90
1179;DHT22;578;48.408;10.004;2023-12-22T11:53:58;7.00;99.90
1179;DHT22;578;48.408;10.004;2023-12-22T11:56:01;6.90;99.90
1179;DHT22;578;48.408;10.004;2023-12-22T11:58:38;6.90;99.90
1179;DHT22;578;48.408;10.004;2023-12-22T12:00:40;6.80;99.90
1179;DHT22;578;48.408;10.004;2023-12-22T12:02:42;6.80;99.90
1179;DHT22;578;48.408;10.004;2023-12-22T12:04:44;6.70;99.90
1179;DHT22;578;48.408;10.004;2023-12-22T12:06:47;6.70;99.90
1179;DHT22;578;48.408;10.004;2023-12-22T12:08:49;6.70;99.90
1179;DHT22;578;48.408;10.004;2023-12-22T12:10:53;6.60;99.90
1179;DHT22;578;48.408;10.004;2023-12-22T12:13:04;6.60;99.90
1179;DHT22;578;48.408;10.004;2023-12-22T12:15:10;6.60;99.90
1179;DHT22;578;48.408;10.004;2023-12-22T12:17:15;6.70;99.90
1179;DHT22;578;48.408;10.004;2023-12-22T12:19:19;6.60;99.90
1179;DHT22;578;48.408;10.004;2023-12-22T12:21:21;6.60;99.90
1179;DHT22;578;48.408;10.004;2023-12-22T12:23:23;6.60;99.90
1179;DHT22;578;48.408;10.004;2023-12-22T12:25:28;6.60;99.90
1179;DHT22;578;48.408;10.004;2023-12-22T12:27:32;6.60;99.90
1179;DHT22;578;48.408;10.004;2023-12-22T12:29:37;6.70;99.90
1179;DHT22;578;48.408;10.004;2023-12-22T12:31:41;6.70;99.90
1179;DHT22;578;48.408;10.004;2023-12-22T12:33:42;6.70;99.90
1179;DHT22;578;48.408;10.004;2023-12-22T12:35:46;6.70;99.90
1179;DHT22;578;48.408;10.004;2023-12-22T12:37:47;6.70;99.90
1179;DHT22;578;48.408;10.004;2023-12-22T12:39:50;6.70;99.90
1179;DHT22;578;48.408;10.004;2023-12-22T12:41:54;6.80;99.90
1179;DHT22;578;48.408;10.004;2023-12-22T12:43:58;6.80;99.90
1179;DHT22;578;48.408;10.004;2023-12-22T12:46:04;6.80;99.90
1179;DHT22;578;48.408;10.004;2023-12-22T12:48:06;6.80;99.90
1179;DHT22;578;48.408;10.004;2023-12-22T12:50:08;6.80;99.90
1179;DHT22;578;48.408;10.004;2023-12-22T12:52:12;6.80;99.90
1179;DHT22;578;48.408;10.004;2023-12-22T12:54:14;6.80;99.90
1179;DHT22;578;48.408;10.004;2023-12-22T12:56:16;6.80;99.90
1179;DHT22;578;48.408;10.004;2023-12-22T12:58:17;6.80;99.90
1179;DHT22;578;48.408;10.004;2023-12-22T13:00:25;6.80;99.90
1179;DHT22;578;48.408;10.004;2023-12-22T13:02:27;6.80;99.90
1179;DHT22;578;48.408;10.004;2023-12-22T13:04:37;6.80;99.90
1179;DHT22;578;48.408;10.004;2023-12-22T13:06:43;6.80;99.90
1179;DHT22;578;48.408;10.004;2023-12-22T13:08:47;6.80;99.90
1179;DHT22;578;48.408;10.004;2023-12-22T13:10:59;6.80;99.90
1179;DHT22;578;48.408;10.004;2023-12-22T13:13:01;6.90;99.90
1179;DHT22;578;48.408;10.004;2023-12-22T13:15:04;6.90;99.90
1179;DHT22;578;48.408;10.004;2023-12-22T13:17:07;6.90;99.90
1179;DHT22;578;48.408;10.004;2023-12-22T13:19:10;6.90;99.90
1179;DHT22;578;48.408;10.004;2023-12-22T13:21:13;6.90;99.90
1179;DHT22;578;48.408;10.004;2023-12-22T13:23:17;6.90;99.90
1179;DHT22;578;48.408;10.004;2023-12-22T13:25:19;7.00;99.90
1179;DHT22;578;48.408;10.004;2023-12-22T13:27:23;7.00;99.90
1179;DHT22;578;48.408;10.004;2023-12-22T13:29:24;6.90;99.90
1179;DHT22;578;48.408;10.004;2023-12-22T13:31:26;6.90;99.90